Terminal Aerodrome Forecast
Issued by NWS Duluth, MN

Home | Current Version | Previous Version | Text Only | Print | Product List | Glossary On
Versions: 1 2 3 4 5 6 7 8 9 10 11 12 13 14 15 16 17 18 19 20 21 22 23 24 25 26 27
290
FTUS43 KDLH 301142
TAFINL
TAF
KINL 301142Z 3012/0112 14004KT 2SM BR OVC004
      TEMPO 3012/3013 3/4SM BR VV002
     FM301500 12006KT 6SM BR BKN007
     FM302000 12006KT P6SM SCT012
     FM010100 VRB02KT P6SM FEW060=

USA.gov is the U.S. government's official web portal to all federal, state and local government web resources and services.